Meath Environmental Platform

Observations for Trim Market St

Time AQI Temp °C Hum % Pres Pa CO μg/m³ H₂S μg/m³ NO μg/m³ NO₂ μg/m³ O₃ μg/m³ SO₂ μg/m³ PM1 μg/m³ PM2.5 μg/m³ PM10 μg/m³
Monday 17 August 2026
21:19 3 19.5 82 2,147,483,647 0.14 0 2.2 14.88 56.99 0 0.71 1.53 4.22
21:14 3 19.6 82 2,147,483,647 0.11 0 2.21 13.04 58.7 0 0.71 2.47 6.98
21:08 3 19.5 82 2,147,483,647 0.56 0 2.08 14.9 52.4 0 0.71 1.56 5.31
21:07 3 19.5 82 2,147,483,647 0.14 0 2.01 18.07 60.34 0 0 1.56 4.2
21:04 3 19.6 82 2,147,483,647 0.11 0 2.17 13.72 57.05 0 1.43 2.5 5.3
21:03 3 19.5 82 2,147,483,647 0.11 0 2.15 17.37 59.8 0 0.71 2.98 5.86
21:02 3 19.5 82 2,147,483,647 0.11 0 2.13 16.87 55.73 0 0.71 1.57 4.18
21:01 3 19.5 82 2,147,483,647 0.15 0 2.13 19.96 58.82 0 0 1.57 4.74
21:00 3 19.5 81 2,147,483,647 0.21 0 2.13 15.9 55.31 0 0.71 2.05 5.3
20:59 3 19.5 81 2,147,483,647 0.18 0 2.12 22.99 62.92 0 0.71 2.05 4.74
20:58 3 19.5 81 2,147,483,647 0.15 0 2.13 9.01 51.71 0 1.43 2.52 5.29
20:57 3 19.5 81 2,147,483,647 0.15 0 2.11 14.18 58.31 0 1.43 2.53 5.29
20:56 3 19.5 81 2,147,483,647 0.21 0 2.11 13.17 56.13 0 2.14 2.53 5.29
20:55 3 19.5 81 2,147,483,647 0.34 0 2.11 18.18 59.48 0 1.43 2.53 6.41
20:54 3 19.5 81 2,147,483,647 0.49 0 2.11 15.17 58.02 0 1.43 2.53 6.97
20:53 3 19.5 81 2,147,483,647 0.17 0 2.06 13.57 56.47 0 0.71 2.07 5.85
20:52 3 19.5 81 2,147,483,647 0.13 0 2.02 15.97 58.33 0 1.43 2.55 5.28
20:51 3 19.6 81 2,147,483,647 0.16 0 2.07 17.34 65.4 0 2.14 3.02 5.84
20:48 3 19.6 81 2,147,483,647 0.18 0 2.08 16.1 59.36 0 1.43 2.08 4.71
20:46 3 19.6 80 2,147,483,647 0.16 0 2.17 15.87 56.84 0 0.71 2.09 6.4